createdAt,value
2017-02-14T00:00:03.778Z,0
2017-02-14T00:01:15.224Z,0
2017-02-14T00:02:26.691Z,0
2017-02-14T00:03:38.136Z,0
2017-02-14T00:04:49.576Z,0
2017-02-14T00:06:01.018Z,0
2017-02-14T00:07:12.662Z,0
2017-02-14T00:08:24.098Z,0
2017-02-14T00:09:35.583Z,0
2017-02-14T00:10:47.228Z,0
2017-02-14T00:11:58.657Z,0
2017-02-14T00:13:10.151Z,0
2017-02-14T00:14:21.598Z,0
2017-02-14T00:15:33.022Z,0
2017-02-14T00:16:44.455Z,0
2017-02-14T00:17:55.897Z,0
2017-02-14T00:19:07.338Z,0
2017-02-14T00:20:19.046Z,0
2017-02-14T00:21:30.492Z,0
2017-02-14T00:22:41.927Z,0
2017-02-14T00:23:53.378Z,0
2017-02-14T00:25:04.825Z,0
2017-02-14T00:26:16.262Z,0
2017-02-14T00:27:27.709Z,0
2017-02-14T00:28:39.161Z,0
2017-02-14T00:29:50.609Z,0
2017-02-14T00:31:02.091Z,0
2017-02-14T00:32:13.543Z,0
2017-02-14T00:33:25.016Z,0
2017-02-14T00:34:36.453Z,0
2017-02-14T00:35:47.899Z,0
2017-02-14T00:36:59.358Z,0
2017-02-14T00:38:10.803Z,0
2017-02-14T00:39:22.250Z,0
2017-02-14T00:40:33.691Z,0
2017-02-14T00:41:45.152Z,0
2017-02-14T00:42:56.583Z,0
2017-02-14T00:44:08.032Z,0
2017-02-14T00:45:19.458Z,0
2017-02-14T00:46:30.891Z,0
2017-02-14T00:47:42.330Z,0
2017-02-14T00:48:53.756Z,0
2017-02-14T00:50:05.174Z,0
2017-02-14T00:51:16.627Z,0
2017-02-14T00:52:28.106Z,0
2017-02-14T00:53:39.746Z,0
2017-02-14T00:54:51.164Z,0
2017-02-14T00:56:02.594Z,0
2017-02-14T00:57:14.013Z,0
2017-02-14T00:58:25.491Z,0
2017-02-14T00:59:36.932Z,0
2017-02-14T01:00:48.572Z,0
2017-02-14T01:02:00.234Z,0
2017-02-14T01:03:11.916Z,0
2017-02-14T01:04:23.375Z,0
2017-02-14T01:05:34.812Z,0
2017-02-14T01:06:46.443Z,0
2017-02-14T01:07:57.891Z,0
2017-02-14T01:09:09.550Z,0
2017-02-14T01:10:20.978Z,0
2017-02-14T01:11:32.426Z,0
2017-02-14T01:12:43.869Z,0
2017-02-14T01:13:55.352Z,0
2017-02-14T01:15:06.807Z,0
2017-02-14T01:16:18.463Z,0
2017-02-14T01:17:30.101Z,0
2017-02-14T01:18:41.546Z,0
2017-02-14T01:19:53.159Z,0
2017-02-14T01:21:04.602Z,0
2017-02-14T01:22:16.034Z,0
2017-02-14T01:23:27.478Z,0
2017-02-14T01:24:39.167Z,0
2017-02-14T01:25:50.599Z,0
2017-02-14T01:27:02.039Z,0
2017-02-14T01:28:13.478Z,0
2017-02-14T01:29:24.907Z,0
2017-02-14T01:30:36.341Z,0
2017-02-14T01:31:47.796Z,0
2017-02-14T01:32:59.224Z,0
2017-02-14T01:34:10.857Z,0
2017-02-14T01:35:22.336Z,0
2017-02-14T01:36:33.799Z,0
2017-02-14T01:37:45.233Z,0
2017-02-14T01:38:56.670Z,0
2017-02-14T01:40:08.120Z,0
2017-02-14T01:41:19.568Z,0
2017-02-14T01:42:31.010Z,0
2017-02-14T01:43:42.452Z,0
2017-02-14T01:44:54.099Z,0
2017-02-14T01:46:05.599Z,0
2017-02-14T01:47:17.265Z,0
2017-02-14T01:48:28.699Z,0
2017-02-14T01:49:40.130Z,0
2017-02-14T01:50:51.547Z,0
2017-02-14T01:52:02.983Z,0
2017-02-14T01:53:14.421Z,0
2017-02-14T01:54:25.866Z,0
2017-02-14T01:55:37.303Z,0
2017-02-14T01:56:48.813Z,0
2017-02-14T01:58:00.266Z,0
2017-02-14T01:59:11.718Z,0
2017-02-14T02:00:23.390Z,0
2017-02-14T02:01:34.859Z,0
2017-02-14T02:02:46.306Z,0
2017-02-14T02:03:57.747Z,0
2017-02-14T02:05:09.190Z,0
2017-02-14T02:06:20.837Z,0
2017-02-14T02:07:32.326Z,0
2017-02-14T02:08:43.753Z,0
2017-02-14T02:09:55.203Z,0
2017-02-14T02:11:06.651Z,0
2017-02-14T02:12:18.125Z,0
2017-02-14T02:13:29.555Z,0
2017-02-14T02:14:41.010Z,0
2017-02-14T02:15:52.468Z,0
2017-02-14T02:17:04.097Z,0
2017-02-14T02:18:15.529Z,0
2017-02-14T02:19:27.374Z,0
2017-02-14T02:20:38.799Z,0
2017-02-14T02:21:50.223Z,0
2017-02-14T02:23:01.865Z,0
2017-02-14T02:24:13.346Z,0
2017-02-14T02:25:24.804Z,0
2017-02-14T02:26:36.261Z,0
2017-02-14T02:27:47.709Z,0
2017-02-14T02:28:59.209Z,0
2017-02-14T02:30:10.655Z,0
2017-02-14T02:31:22.274Z,0
2017-02-14T02:32:33.716Z,0
2017-02-14T02:33:45.146Z,0
2017-02-14T02:34:56.643Z,0
2017-02-14T02:36:08.271Z,0
2017-02-14T02:37:19.711Z,0
2017-02-14T02:38:31.366Z,0
2017-02-14T02:39:42.858Z,0
2017-02-14T02:40:54.296Z,0
2017-02-14T02:42:05.734Z,0
2017-02-14T02:43:17.177Z,0
2017-02-14T02:44:28.606Z,0
2017-02-14T02:45:40.044Z,0
2017-02-14T02:46:51.465Z,0
2017-02-14T02:48:03.114Z,0
2017-02-14T02:49:14.562Z,0
2017-02-14T02:50:26.050Z,0
2017-02-14T02:51:37.503Z,0
2017-02-14T02:52:48.931Z,0
2017-02-14T02:54:00.559Z,0
2017-02-14T02:55:12.002Z,0
2017-02-14T02:56:23.438Z,0
2017-02-14T02:57:34.880Z,0
2017-02-14T02:58:46.313Z,0
2017-02-14T02:59:58.148Z,0
2017-02-14T03:01:09.638Z,0
2017-02-14T03:02:21.057Z,0
2017-02-14T03:03:32.523Z,0
2017-02-14T03:04:43.964Z,0
2017-02-14T03:05:55.426Z,0
2017-02-14T03:07:07.086Z,0
2017-02-14T03:08:18.734Z,0
2017-02-14T03:09:30.381Z,0
2017-02-14T03:10:41.820Z,0
2017-02-14T03:11:53.267Z,0
2017-02-14T03:13:04.776Z,0
2017-02-14T03:14:16.212Z,0
2017-02-14T03:15:27.652Z,0
2017-02-14T03:16:39.077Z,0
2017-02-14T03:17:50.503Z,0
2017-02-14T03:19:01.930Z,0
2017-02-14T03:20:13.363Z,0
2017-02-14T03:21:24.780Z,0
2017-02-14T03:22:36.261Z,0
2017-02-14T03:23:48.095Z,0
2017-02-14T03:24:59.556Z,0
2017-02-14T03:26:10.995Z,0
2017-02-14T03:27:22.428Z,0
2017-02-14T03:28:33.859Z,0
2017-02-14T03:29:45.307Z,0
2017-02-14T03:30:56.751Z,0
2017-02-14T03:32:08.183Z,0
2017-02-14T03:33:19.665Z,0
2017-02-14T03:34:31.117Z,0
2017-02-14T03:35:42.551Z,0
2017-02-14T03:36:53.984Z,0
2017-02-14T03:38:05.649Z,0
2017-02-14T03:39:17.271Z,0
2017-02-14T03:40:28.686Z,0
2017-02-14T03:41:40.110Z,0
2017-02-14T03:42:51.760Z,0
2017-02-14T03:44:03.443Z,0
2017-02-14T03:45:14.891Z,0
2017-02-14T03:46:26.317Z,0
2017-02-14T03:47:37.965Z,0
2017-02-14T03:48:49.398Z,0
2017-02-14T03:50:00.886Z,0
2017-02-14T03:51:12.326Z,0
2017-02-14T03:52:23.763Z,0
2017-02-14T03:53:35.203Z,0
2017-02-14T03:54:46.703Z,0
2017-02-14T03:55:58.128Z,0
2017-02-14T03:57:09.583Z,0
2017-02-14T03:58:21.018Z,0
2017-02-14T03:59:32.652Z,0
2017-02-14T04:00:44.087Z,0
2017-02-14T04:01:55.530Z,0
2017-02-14T04:03:07.165Z,0
2017-02-14T04:04:18.796Z,0
2017-02-14T04:05:30.268Z,0
2017-02-14T04:06:41.710Z,0
2017-02-14T04:07:53.132Z,0
2017-02-14T04:09:04.776Z,0
2017-02-14T04:10:16.252Z,0
2017-02-14T04:11:27.676Z,0
2017-02-14T04:12:39.109Z,0
2017-02-14T04:13:50.533Z,0
2017-02-14T04:15:01.995Z,0
2017-02-14T04:16:13.472Z,0
2017-02-14T04:17:24.913Z,0
2017-02-14T04:18:36.357Z,0
2017-02-14T04:19:47.982Z,0
2017-02-14T04:20:59.407Z,0
2017-02-14T04:22:10.876Z,0
2017-02-14T04:23:22.317Z,0
2017-02-14T04:24:33.732Z,0
2017-02-14T04:25:45.358Z,0
2017-02-14T04:26:56.849Z,0
2017-02-14T04:28:08.523Z,0
2017-02-14T04:29:20.158Z,0
2017-02-14T04:30:31.592Z,0
2017-02-14T04:31:43.209Z,0
2017-02-14T04:32:54.660Z,0
2017-02-14T04:34:06.325Z,0
2017-02-14T04:35:17.771Z,0
2017-02-14T04:36:29.191Z,0
2017-02-14T04:37:40.624Z,0
2017-02-14T04:38:52.113Z,0
2017-02-14T04:40:03.740Z,0
2017-02-14T04:41:15.200Z,0
2017-02-14T04:42:26.641Z,0
2017-02-14T04:43:38.069Z,0
2017-02-14T04:44:49.507Z,0
2017-02-14T04:46:00.968Z,0
2017-02-14T04:47:12.416Z,0
2017-02-14T04:48:23.907Z,0
2017-02-14T04:49:35.348Z,0
2017-02-14T04:50:46.813Z,0
2017-02-14T04:51:58.248Z,0
2017-02-14T04:53:09.683Z,0
2017-02-14T04:54:21.127Z,0
2017-02-14T04:55:32.565Z,0
2017-02-14T04:56:44.013Z,0
2017-02-14T04:57:55.657Z,0
2017-02-14T04:59:07.140Z,0
2017-02-14T05:00:18.588Z,0
2017-02-14T05:01:30.041Z,0
2017-02-14T05:02:41.487Z,0
2017-02-14T05:03:52.924Z,0
2017-02-14T05:05:04.565Z,0
2017-02-14T05:06:16.017Z,0
2017-02-14T05:07:27.441Z,0
2017-02-14T05:08:38.878Z,0
2017-02-14T05:09:50.348Z,0
2017-02-14T05:11:01.804Z,0
2017-02-14T05:12:13.459Z,0
2017-02-14T05:13:24.911Z,0
2017-02-14T05:14:36.335Z,0
2017-02-14T05:15:47.775Z,0
2017-02-14T05:16:59.237Z,0
2017-02-14T05:18:10.681Z,0
2017-02-14T05:19:22.119Z,0
2017-02-14T05:20:33.544Z,0
2017-02-14T05:21:45.179Z,0
2017-02-14T05:22:57.009Z,0
2017-02-14T05:24:08.426Z,0
2017-02-14T05:25:19.862Z,0
2017-02-14T05:26:31.353Z,0
2017-02-14T05:27:42.815Z,0
2017-02-14T05:28:54.467Z,0
2017-02-14T05:30:06.108Z,0
2017-02-14T05:31:17.942Z,0
2017-02-14T05:32:29.420Z,0
2017-02-14T05:33:40.857Z,0
2017-02-14T05:34:52.295Z,0
2017-02-14T05:36:03.734Z,0
2017-02-14T05:37:15.157Z,0
2017-02-14T05:38:26.589Z,0
2017-02-14T05:39:38.016Z,0
2017-02-14T05:40:49.450Z,0
2017-02-14T05:42:00.887Z,0
2017-02-14T05:43:12.381Z,0
2017-02-14T05:44:24.012Z,0
2017-02-14T05:45:35.459Z,0
2017-02-14T05:46:46.900Z,0
2017-02-14T05:47:58.539Z,0
2017-02-14T05:49:09.963Z,0
2017-02-14T05:50:21.408Z,0
2017-02-14T05:51:33.252Z,0
2017-02-14T05:52:44.709Z,0
2017-02-14T05:53:56.191Z,0
2017-02-14T05:55:07.639Z,0
2017-02-14T05:56:19.304Z,0
2017-02-14T05:57:30.746Z,0
2017-02-14T05:58:42.376Z,0
2017-02-14T05:59:53.808Z,0
2017-02-14T06:01:05.233Z,0
2017-02-14T06:02:16.660Z,0
2017-02-14T06:03:28.082Z,0
2017-02-14T06:04:39.516Z,0
2017-02-14T06:05:50.947Z,4
2017-02-14T06:07:02.372Z,0
2017-02-14T06:08:13.792Z,0
2017-02-14T06:09:25.217Z,4
2017-02-14T06:10:36.697Z,4
2017-02-14T06:11:48.125Z,4
2017-02-14T06:12:59.562Z,4
2017-02-14T06:14:11.018Z,4
2017-02-14T06:15:22.646Z,8
2017-02-14T06:16:34.273Z,8
2017-02-14T06:17:45.739Z,12
2017-02-14T06:18:57.189Z,12
2017-02-14T06:20:08.688Z,16
2017-02-14T06:21:20.118Z,20
2017-02-14T06:22:31.543Z,24
2017-02-14T06:23:42.999Z,32
2017-02-14T06:24:54.441Z,36
2017-02-14T06:26:06.084Z,40
2017-02-14T06:27:17.723Z,52
2017-02-14T06:28:29.196Z,60
2017-02-14T06:29:40.631Z,72
2017-02-14T06:30:52.121Z,84
2017-02-14T06:32:03.554Z,96
2017-02-14T06:33:15.008Z,108
2017-02-14T06:34:26.635Z,124
2017-02-14T06:35:38.277Z,144
2017-02-14T06:36:49.730Z,164
2017-02-14T06:38:01.176Z,188
2017-02-14T06:39:12.605Z,212
2017-02-14T06:40:24.041Z,236
2017-02-14T06:41:35.520Z,264
2017-02-14T06:42:46.953Z,292
2017-02-14T06:43:58.407Z,324
2017-02-14T06:45:09.848Z,356
2017-02-14T06:46:21.304Z,392
2017-02-14T06:47:33.142Z,432
2017-02-14T06:48:44.588Z,476
2017-02-14T06:49:56.236Z,516
2017-02-14T06:51:07.672Z,564
2017-02-14T06:52:19.110Z,612
2017-02-14T06:53:30.547Z,664
2017-02-14T06:54:41.957Z,720
2017-02-14T06:55:53.403Z,780
2017-02-14T06:57:04.832Z,840
2017-02-14T06:58:16.345Z,908
2017-02-14T06:59:27.778Z,976
2017-02-14T07:00:39.196Z,1048
2017-02-14T07:01:50.636Z,1124
2017-02-14T07:03:02.084Z,1200
2017-02-14T07:04:13.512Z,1280
2017-02-14T07:05:24.943Z,1364
2017-02-14T07:06:36.358Z,1448
2017-02-14T07:07:47.798Z,1540
2017-02-14T07:08:59.275Z,1628
2017-02-14T07:10:10.706Z,1728
2017-02-14T07:11:22.147Z,1872
2017-02-14T07:12:33.576Z,2108
2017-02-14T07:13:45.013Z,2416
2017-02-14T07:14:56.451Z,2824
2017-02-14T07:16:07.893Z,3124
2017-02-14T07:17:19.317Z,2964
2017-02-14T07:18:30.749Z,4460
2017-02-14T07:19:42.435Z,4956
2017-02-14T07:20:53.867Z,3380
2017-02-14T07:22:05.736Z,2684
2017-02-14T07:23:17.190Z,2848
2017-02-14T07:24:28.626Z,3212
2017-02-14T07:25:40.246Z,3232
2017-02-14T07:26:51.709Z,3144
2017-02-14T07:28:03.150Z,3800
2017-02-14T07:29:14.602Z,5800
2017-02-14T07:30:26.090Z,6476
2017-02-14T07:31:37.932Z,7916
2017-02-14T07:32:49.581Z,8324
2017-02-14T07:34:01.028Z,10288
2017-02-14T07:35:12.457Z,14720
2017-02-14T07:36:23.941Z,17568
2017-02-14T07:37:35.575Z,19424
2017-02-14T07:38:47.023Z,18624
2017-02-14T07:39:58.453Z,19072
2017-02-14T07:41:09.931Z,16448
2017-02-14T07:42:21.399Z,10964
2017-02-14T07:43:32.821Z,10492
2017-02-14T07:44:44.253Z,13120
2017-02-14T07:45:55.705Z,11448
2017-02-14T07:47:07.149Z,11644
2017-02-14T07:48:18.578Z,11600
2017-02-14T07:49:30.022Z,16672
2017-02-14T07:50:41.866Z,20640
2017-02-14T07:51:53.345Z,17056
2017-02-14T07:53:04.781Z,14016
2017-02-14T07:54:16.208Z,13760
2017-02-14T07:55:27.849Z,15072
2017-02-14T07:56:39.299Z,21888
2017-02-14T07:57:50.756Z,28416
2017-02-14T07:59:02.207Z,31584
2017-02-14T08:00:13.648Z,33984
2017-02-14T08:01:25.104Z,35936
2017-02-14T08:02:36.592Z,35616
2017-02-14T08:03:48.054Z,36608
2017-02-14T08:04:59.528Z,34816
2017-02-14T08:06:10.968Z,37408
2017-02-14T08:07:22.429Z,20480
2017-02-14T08:08:33.879Z,21664
2017-02-14T08:09:45.509Z,35968
2017-02-14T08:10:57.145Z,41472
2017-02-14T08:12:08.791Z,28832
2017-02-14T08:13:20.439Z,29632
2017-02-14T08:14:31.884Z,38176
2017-02-14T08:15:43.333Z,34048
2017-02-14T08:16:54.807Z,43936
2017-02-14T08:18:06.270Z,34112
2017-02-14T08:19:17.764Z,21920
2017-02-14T08:20:29.211Z,27552
2017-02-14T08:21:40.873Z,38976
2017-02-14T08:22:52.502Z,41184
2017-02-14T08:24:03.976Z,36512
2017-02-14T08:25:15.432Z,37088
2017-02-14T08:26:26.880Z,28704
2017-02-14T08:27:38.321Z,22336
2017-02-14T08:28:49.831Z,22304
2017-02-14T08:30:01.289Z,28576
2017-02-14T08:31:12.733Z,44672
2017-02-14T08:32:24.166Z,50336
2017-02-14T08:33:35.597Z,51072
2017-02-14T08:34:47.073Z,54240
2017-02-14T08:35:58.531Z,58208
2017-02-14T08:37:09.975Z,60672
2017-02-14T08:38:21.448Z,59968
2017-02-14T08:39:32.948Z,61248
2017-02-14T08:40:44.395Z,55904
2017-02-14T08:41:55.858Z,57216
2017-02-14T08:43:07.317Z,62496
2017-02-14T08:44:18.787Z,55424
2017-02-14T08:45:30.238Z,46176
2017-02-14T08:46:41.701Z,52896
2017-02-14T08:47:53.369Z,54944
2017-02-14T08:49:04.855Z,52992
2017-02-14T08:50:16.348Z,54112
2017-02-14T08:51:27.796Z,51232
2017-02-14T08:52:39.256Z,45440
2017-02-14T08:53:50.697Z,55584
2017-02-14T08:55:02.355Z,56384
2017-02-14T08:56:13.844Z,59744
2017-02-14T08:57:25.295Z,67520
2017-02-14T08:58:37.153Z,62656
2017-02-14T08:59:48.814Z,58880
2017-02-14T09:01:00.279Z,53504
2017-02-14T09:02:11.759Z,56800
2017-02-14T09:03:23.214Z,53216
2017-02-14T09:04:34.859Z,45728
2017-02-14T09:05:46.324Z,41184
2017-02-14T09:06:57.808Z,32640
2017-02-14T09:08:09.268Z,25088
2017-02-14T09:09:20.730Z,17344
2017-02-14T09:10:32.202Z,34240
2017-02-14T09:11:43.663Z,42240
2017-02-14T09:12:55.146Z,45984
2017-02-14T09:14:06.595Z,49952
2017-02-14T09:15:18.068Z,45280
2017-02-14T09:16:29.510Z,39456
2017-02-14T09:17:41.001Z,40992
2017-02-14T09:18:52.512Z,44320
2017-02-14T09:20:03.961Z,39776
2017-02-14T09:21:15.409Z,35840
2017-02-14T09:22:26.854Z,40384
2017-02-14T09:23:38.338Z,34496
2017-02-14T09:24:49.996Z,29824
2017-02-14T09:26:01.455Z,29792
2017-02-14T09:27:13.107Z,29824
2017-02-14T09:28:24.549Z,32800
2017-02-14T09:29:36.260Z,37216
2017-02-14T09:30:47.718Z,52960
2017-02-14T09:31:59.373Z,63328
2017-02-14T09:33:11.035Z,64512
2017-02-14T09:34:22.687Z,63584
2017-02-14T09:35:34.348Z,64448
2017-02-14T09:36:45.784Z,67168
2017-02-14T09:37:57.231Z,68384
2017-02-14T09:39:08.721Z,68384
2017-02-14T09:40:20.238Z,66112
2017-02-14T09:41:31.690Z,65856
2017-02-14T09:42:43.153Z,66816
2017-02-14T09:43:54.617Z,68160
2017-02-14T09:45:06.090Z,67680
2017-02-14T09:46:17.598Z,67584
2017-02-14T09:47:29.077Z,65440
2017-02-14T09:48:40.532Z,65152
2017-02-14T09:49:52.011Z,66496
2017-02-14T09:51:03.522Z,65088
2017-02-14T09:52:14.995Z,64576
2017-02-14T09:53:26.453Z,66464
2017-02-14T09:54:37.922Z,66688
2017-02-14T09:55:49.375Z,67392
2017-02-14T09:57:00.825Z,66080
2017-02-14T09:58:12.295Z,66400
2017-02-14T09:59:23.740Z,68640
2017-02-14T10:00:35.600Z,70176
2017-02-14T10:01:47.125Z,70176
2017-02-14T10:02:58.802Z,70048
2017-02-14T10:04:10.263Z,69376
2017-02-14T10:05:21.709Z,67712
2017-02-14T10:06:33.192Z,67648
2017-02-14T10:07:44.650Z,68864
2017-02-14T10:08:56.137Z,69344
2017-02-14T10:10:07.599Z,67840
2017-02-14T10:11:19.054Z,66400
2017-02-14T10:12:30.568Z,67968
2017-02-14T10:13:42.033Z,67424
2017-02-14T10:14:53.697Z,65920
2017-02-14T10:16:05.150Z,64192
2017-02-14T10:17:16.615Z,61984
2017-02-14T10:18:28.075Z,61408
2017-02-14T10:19:39.556Z,62496
2017-02-14T10:20:51.019Z,60800
2017-02-14T10:22:02.484Z,58528
2017-02-14T10:23:14.001Z,57760
2017-02-14T10:24:25.455Z,56512
2017-02-14T10:25:36.916Z,57728
2017-02-14T10:26:48.360Z,60352
2017-02-14T10:27:59.825Z,60320
2017-02-14T10:29:11.300Z,61920
2017-02-14T10:30:22.772Z,61088
2017-02-14T10:31:34.231Z,59840
2017-02-14T10:32:45.687Z,59616
2017-02-14T10:33:57.404Z,58976
2017-02-14T10:35:08.857Z,57984
2017-02-14T10:36:20.380Z,58944
2017-02-14T10:37:32.040Z,60256
2017-02-14T10:38:43.686Z,59424
2017-02-14T10:39:55.161Z,58912
2017-02-14T10:41:06.611Z,59200
2017-02-14T10:42:18.071Z,60768
2017-02-14T10:43:29.555Z,58368
2017-02-14T10:44:41.016Z,59904
2017-02-14T10:45:52.487Z,62752
2017-02-14T10:47:03.965Z,60672
2017-02-14T10:48:15.411Z,59744
2017-02-14T10:49:26.873Z,59808
2017-02-14T10:50:38.413Z,60800
2017-02-14T10:51:50.076Z,60224
2017-02-14T10:53:01.573Z,61056
2017-02-14T10:54:13.032Z,61312
2017-02-14T10:55:24.475Z,61312
2017-02-14T10:56:35.932Z,59552
2017-02-14T10:57:47.403Z,59776
2017-02-14T10:58:58.855Z,62016
2017-02-14T11:00:10.381Z,62368
2017-02-14T11:01:21.863Z,63584
2017-02-14T11:02:33.327Z,63392
2017-02-14T11:03:44.784Z,62496
2017-02-14T11:04:56.254Z,62336
2017-02-14T11:06:07.715Z,60832
2017-02-14T11:07:19.199Z,58688
2017-02-14T11:08:30.683Z,57760
2017-02-14T11:09:42.129Z,60576
2017-02-14T11:10:53.647Z,61536
2017-02-14T11:12:05.098Z,58432
2017-02-14T11:13:16.771Z,58080
2017-02-14T11:14:28.226Z,57216
2017-02-14T11:15:39.694Z,58656
2017-02-14T11:16:51.173Z,57152
2017-02-14T11:18:02.646Z,57344
2017-02-14T11:19:14.092Z,58272
2017-02-14T11:20:25.773Z,59328
2017-02-14T11:21:37.323Z,54464
2017-02-14T11:22:49.004Z,55776
2017-02-14T11:24:00.486Z,57920
2017-02-14T11:25:11.958Z,57600
2017-02-14T11:26:23.413Z,55776
2017-02-14T11:27:34.871Z,56032
2017-02-14T11:28:46.348Z,59072
2017-02-14T11:29:57.823Z,55776
2017-02-14T11:31:09.294Z,54368
2017-02-14T11:32:20.755Z,51456
2017-02-14T11:33:32.219Z,47456
2017-02-14T11:34:43.870Z,52288
2017-02-14T11:35:55.349Z,44800
2017-02-14T11:37:06.837Z,53184
2017-02-14T11:38:18.291Z,47328
2017-02-14T11:39:29.773Z,41984
2017-02-14T11:40:41.241Z,45440
2017-02-14T11:41:52.719Z,44480
2017-02-14T11:43:04.436Z,35168
2017-02-14T11:44:15.914Z,43520
2017-02-14T11:45:27.368Z,39328
2017-02-14T11:46:38.845Z,40416
2017-02-14T11:47:50.305Z,44896
2017-02-14T11:49:01.973Z,44448
2017-02-14T11:50:13.429Z,45440
2017-02-14T11:51:24.903Z,47744
2017-02-14T11:52:36.372Z,42976
2017-02-14T11:53:47.875Z,44000
2017-02-14T11:54:59.329Z,37824
2017-02-14T11:56:10.772Z,41216
2017-02-14T11:57:22.231Z,34816
2017-02-14T11:58:33.697Z,30304
2017-02-14T11:59:45.145Z,37056
2017-02-14T12:00:56.597Z,38592
2017-02-14T12:02:08.064Z,38176
2017-02-14T12:03:19.523Z,35968
2017-02-14T12:04:31.028Z,35456
2017-02-14T12:05:42.500Z,35392
2017-02-14T12:06:53.948Z,35936
2017-02-14T12:08:05.405Z,31712
2017-02-14T12:09:16.888Z,26688
2017-02-14T12:10:28.341Z,27584
2017-02-14T12:11:39.999Z,32416
2017-02-14T12:12:51.491Z,31392
2017-02-14T12:14:02.938Z,32416
2017-02-14T12:15:14.463Z,28480
2017-02-14T12:16:25.947Z,25632
2017-02-14T12:17:37.807Z,22528
2017-02-14T12:18:49.247Z,18016
2017-02-14T12:20:00.725Z,18656
2017-02-14T12:21:12.431Z,24256
2017-02-14T12:22:23.883Z,22304
2017-02-14T12:23:35.320Z,17696
2017-02-14T12:24:46.968Z,22144
2017-02-14T12:25:58.636Z,15936
2017-02-14T12:27:10.294Z,20256
2017-02-14T12:28:21.766Z,19872
2017-02-14T12:29:33.211Z,22048
2017-02-14T12:30:44.684Z,20800
2017-02-14T12:31:56.192Z,20736
2017-02-14T12:33:07.634Z,19776
2017-02-14T12:34:19.081Z,19392
2017-02-14T12:35:30.537Z,17344
2017-02-14T12:36:41.980Z,10684
2017-02-14T12:37:53.430Z,15036
2017-02-14T12:39:04.887Z,18240
2017-02-14T12:40:16.334Z,16800
2017-02-14T12:41:27.988Z,17824
2017-02-14T12:42:39.887Z,17408
2017-02-14T12:43:51.332Z,18432
2017-02-14T12:45:02.787Z,16288
2017-02-14T12:46:14.426Z,12432
2017-02-14T12:47:25.874Z,18784
2017-02-14T12:48:37.339Z,19296
2017-02-14T12:49:48.792Z,20320
2017-02-14T12:51:00.275Z,22112
2017-02-14T12:52:11.721Z,20704
2017-02-14T12:53:23.240Z,21408
2017-02-14T12:54:34.721Z,22432
2017-02-14T12:55:46.191Z,20192
2017-02-14T12:56:57.854Z,18816
2017-02-14T12:58:09.324Z,18208
2017-02-14T12:59:20.789Z,15520
2017-02-14T13:00:32.461Z,17728
2017-02-14T13:01:43.924Z,15360
2017-02-14T13:02:55.379Z,11120
2017-02-14T13:04:06.831Z,10548
2017-02-14T13:05:18.497Z,9696
2017-02-14T13:06:30.162Z,8744
2017-02-14T13:07:41.591Z,8172
2017-02-14T13:08:53.060Z,8160
2017-02-14T13:10:04.570Z,8248
2017-02-14T13:11:16.224Z,8396
2017-02-14T13:12:27.679Z,8516
2017-02-14T13:13:39.330Z,8380
2017-02-14T13:14:50.800Z,7992
2017-02-14T13:16:02.278Z,7232
2017-02-14T13:17:13.762Z,6940
2017-02-14T13:18:25.205Z,6872
2017-02-14T13:19:36.917Z,7288
2017-02-14T13:20:48.376Z,7220
2017-02-14T13:21:59.824Z,7112
2017-02-14T13:23:11.299Z,7052
2017-02-14T13:24:22.747Z,7044
2017-02-14T13:25:34.192Z,6984
2017-02-14T13:26:45.835Z,6748
2017-02-14T13:27:57.308Z,6764
2017-02-14T13:29:08.756Z,6792
2017-02-14T13:30:20.253Z,6692
2017-02-14T13:31:31.748Z,6588
2017-02-14T13:32:43.217Z,6280
2017-02-14T13:33:54.694Z,6140
2017-02-14T13:35:06.145Z,6096
2017-02-14T13:36:17.600Z,6044
2017-02-14T13:37:29.066Z,6196
2017-02-14T13:38:40.511Z,6196
2017-02-14T13:39:52.168Z,6148
2017-02-14T13:41:03.663Z,6096
2017-02-14T13:42:15.311Z,6024
2017-02-14T13:43:26.763Z,5964
2017-02-14T13:44:38.411Z,5896
2017-02-14T13:45:50.069Z,5852
2017-02-14T13:47:01.534Z,5732
2017-02-14T13:48:12.988Z,5580
2017-02-14T13:49:24.657Z,5488
2017-02-14T13:50:36.112Z,5424
2017-02-14T13:51:47.554Z,5004
2017-02-14T13:52:59.206Z,4844
2017-02-14T13:54:10.668Z,4828
2017-02-14T13:55:22.473Z,4828
2017-02-14T13:56:33.947Z,5088
2017-02-14T13:57:45.480Z,5296
2017-02-14T13:58:56.933Z,5320
2017-02-14T14:00:08.390Z,5196
2017-02-14T14:01:19.840Z,4952
2017-02-14T14:02:31.292Z,4836
2017-02-14T14:03:42.746Z,4776
2017-02-14T14:04:54.230Z,4756
2017-02-14T14:06:05.693Z,4704
2017-02-14T14:07:17.137Z,4708
2017-02-14T14:08:28.627Z,4712
2017-02-14T14:09:40.056Z,4748
2017-02-14T14:10:51.509Z,4756
2017-02-14T14:12:02.941Z,4756
2017-02-14T14:13:14.393Z,4516
2017-02-14T14:14:25.824Z,4356
2017-02-14T14:15:37.268Z,4340
2017-02-14T14:16:48.729Z,4616
2017-02-14T14:18:00.164Z,4652
2017-02-14T14:19:11.671Z,4664
2017-02-14T14:20:23.117Z,4800
2017-02-14T14:21:34.759Z,4792
2017-02-14T14:22:46.207Z,4756
2017-02-14T14:23:57.689Z,4848
2017-02-14T14:25:09.134Z,4820
2017-02-14T14:26:20.774Z,4796
2017-02-14T14:27:32.225Z,4720
2017-02-14T14:28:43.860Z,4644
2017-02-14T14:29:55.363Z,4620
2017-02-14T14:31:06.811Z,4656
2017-02-14T14:32:18.277Z,4588
2017-02-14T14:33:29.745Z,4540
2017-02-14T14:34:41.181Z,4460
2017-02-14T14:35:52.625Z,4400
2017-02-14T14:37:04.063Z,4384
2017-02-14T14:38:15.509Z,4236
2017-02-14T14:39:26.949Z,4136
2017-02-14T14:40:38.654Z,4032
2017-02-14T14:41:50.093Z,3868
2017-02-14T14:43:01.541Z,3792
2017-02-14T14:44:12.988Z,3744
2017-02-14T14:45:24.426Z,3700
2017-02-14T14:46:35.890Z,3660
2017-02-14T14:47:47.345Z,3628
2017-02-14T14:48:58.994Z,3596
2017-02-14T14:50:10.459Z,3568
2017-02-14T14:51:21.971Z,3536
2017-02-14T14:52:33.428Z,3516
2017-02-14T14:53:45.074Z,3488
2017-02-14T14:54:56.517Z,3464
2017-02-14T14:56:08.003Z,3432
2017-02-14T14:57:19.498Z,3400
2017-02-14T14:58:31.140Z,3368
2017-02-14T14:59:42.585Z,3348
2017-02-14T15:00:54.224Z,3316
2017-02-14T15:02:05.732Z,3292
2017-02-14T15:03:17.184Z,3264
2017-02-14T15:04:28.668Z,3244
2017-02-14T15:05:40.310Z,3216
2017-02-14T15:06:51.763Z,3188
2017-02-14T15:08:03.240Z,3160
2017-02-14T15:09:14.691Z,3132
2017-02-14T15:10:26.135Z,3112
2017-02-14T15:11:37.780Z,3080
2017-02-14T15:12:49.281Z,3040
2017-02-14T15:14:00.727Z,3008
2017-02-14T15:15:12.171Z,2976
2017-02-14T15:16:23.633Z,2940
2017-02-14T15:17:35.094Z,2916
2017-02-14T15:18:46.546Z,2888
2017-02-14T15:19:58.198Z,2860
2017-02-14T15:21:09.659Z,2832
2017-02-14T15:22:21.139Z,2796
2017-02-14T15:23:33.099Z,2764
2017-02-14T15:24:44.949Z,2736
2017-02-14T15:25:56.398Z,2704
2017-02-14T15:27:07.853Z,2684
2017-02-14T15:28:19.298Z,2656
2017-02-14T15:29:30.761Z,2620
2017-02-14T15:30:42.227Z,2584
2017-02-14T15:31:53.874Z,2548
2017-02-14T15:33:05.344Z,2512
2017-02-14T15:34:16.872Z,2476
2017-02-14T15:35:28.365Z,2444
2017-02-14T15:36:40.085Z,2408
2017-02-14T15:37:51.536Z,2372
2017-02-14T15:39:03.200Z,2328
2017-02-14T15:40:14.638Z,2296
2017-02-14T15:41:26.310Z,2252
2017-02-14T15:42:37.776Z,2216
2017-02-14T15:43:49.220Z,2176
2017-02-14T15:45:00.714Z,2148
2017-02-14T15:46:12.160Z,2100
2017-02-14T15:47:23.612Z,2060
2017-02-14T15:48:35.084Z,2016
2017-02-14T15:49:46.535Z,1976
2017-02-14T15:50:57.988Z,1936
2017-02-14T15:52:09.438Z,1892
2017-02-14T15:53:20.884Z,1852
2017-02-14T15:54:32.355Z,1808
2017-02-14T15:55:43.923Z,1764
2017-02-14T15:56:55.374Z,1716
2017-02-14T15:58:07.550Z,1668
2017-02-14T15:59:19.186Z,1624
2017-02-14T16:00:30.848Z,1576
2017-02-14T16:01:42.320Z,1532
2017-02-14T16:02:53.784Z,1484
2017-02-14T16:04:05.266Z,1436
2017-02-14T16:05:16.726Z,1388
2017-02-14T16:06:28.397Z,1340
2017-02-14T16:07:39.855Z,1292
2017-02-14T16:08:51.311Z,1244
2017-02-14T16:10:02.970Z,1192
2017-02-14T16:11:14.451Z,1148
2017-02-14T16:12:25.953Z,1100
2017-02-14T16:13:37.432Z,1052
2017-02-14T16:14:48.897Z,1008
2017-02-14T16:16:00.540Z,964
2017-02-14T16:17:12.031Z,916
2017-02-14T16:18:23.476Z,872
2017-02-14T16:19:34.937Z,828